sensor_id;sensor_type;location;lat;lon;timestamp;pressure;altitude;pressure_sealevel;temperature;humidity
21980;BME280;11154;48.558;9.234;2022-07-05T00:00:44;97801.91;;;19.42;93.15
21980;BME280;11154;48.558;9.234;2022-07-05T00:02:45;97800.88;;;19.43;92.68
21980;BME280;11154;48.558;9.234;2022-07-05T00:04:47;97799.44;;;19.34;93.08
21980;BME280;11154;48.558;9.234;2022-07-05T00:06:53;97809.81;;;19.24;94.31
21980;BME280;11154;48.558;9.234;2022-07-05T00:09:12;97796.75;;;19.21;94.60
21980;BME280;11154;48.558;9.234;2022-07-05T00:11:14;97793.22;;;19.14;95.04
21980;BME280;11154;48.558;9.234;2022-07-05T00:13:16;97791.13;;;19.03;95.15
21980;BME280;11154;48.558;9.234;2022-07-05T00:15:18;97800.69;;;18.99;94.98
21980;BME280;11154;48.558;9.234;2022-07-05T00:17:21;97793.41;;;18.99;95.18
21980;BME280;11154;48.558;9.234;2022-07-05T00:19:23;97795.28;;;18.99;95.51
21980;BME280;11154;48.558;9.234;2022-07-05T00:21:25;97793.63;;;18.98;94.91
21980;BME280;11154;48.558;9.234;2022-07-05T00:23:29;97795.69;;;18.83;95.37
21980;BME280;11154;48.558;9.234;2022-07-05T00:25:31;97789.88;;;18.73;95.82
21980;BME280;11154;48.558;9.234;2022-07-05T00:27:33;97794.22;;;18.61;95.61
21980;BME280;11154;48.558;9.234;2022-07-05T00:29:35;97795.63;;;18.57;96.49
21980;BME280;11154;48.558;9.234;2022-07-05T00:31:36;97788.22;;;18.72;95.93
21980;BME280;11154;48.558;9.234;2022-07-05T00:33:40;97791.97;;;18.78;96.05
21980;BME280;11154;48.558;9.234;2022-07-05T00:35:42;97790.72;;;18.80;95.52
21980;BME280;11154;48.558;9.234;2022-07-05T00:37:43;97790.06;;;18.78;97.13
21980;BME280;11154;48.558;9.234;2022-07-05T00:39:45;97791.53;;;18.74;97.54
21980;BME280;11154;48.558;9.234;2022-07-05T00:41:47;97796.28;;;18.72;96.87
21980;BME280;11154;48.558;9.234;2022-07-05T00:43:53;97790.69;;;18.67;97.14
21980;BME280;11154;48.558;9.234;2022-07-05T00:45:55;97789.44;;;18.57;97.11
21980;BME280;11154;48.558;9.234;2022-07-05T00:47:57;97797.47;;;18.50;97.59
21980;BME280;11154;48.558;9.234;2022-07-05T00:50:00;97797.28;;;18.52;97.67
21980;BME280;11154;48.558;9.234;2022-07-05T00:52:02;97795.25;;;18.60;97.47
21980;BME280;11154;48.558;9.234;2022-07-05T00:54:06;97788.59;;;18.69;97.01
21980;BME280;11154;48.558;9.234;2022-07-05T00:56:08;97781.56;;;18.75;96.89
21980;BME280;11154;48.558;9.234;2022-07-05T00:58:10;97784.69;;;18.78;96.42
21980;BME280;11154;48.558;9.234;2022-07-05T01:00:12;97788.00;;;18.86;95.84
21980;BME280;11154;48.558;9.234;2022-07-05T01:02:14;97779.53;;;18.89;95.91
21980;BME280;11154;48.558;9.234;2022-07-05T01:04:16;97786.56;;;18.84;96.08
21980;BME280;11154;48.558;9.234;2022-07-05T01:06:19;97804.38;;;18.72;97.01
21980;BME280;11154;48.558;9.234;2022-07-05T01:08:22;97810.34;;;18.48;97.48
21980;BME280;11154;48.558;9.234;2022-07-05T01:10:24;97800.56;;;18.34;98.98
21980;BME280;11154;48.558;9.234;2022-07-05T01:12:26;97807.78;;;18.34;99.82
21980;BME280;11154;48.558;9.234;2022-07-05T01:14:28;97801.00;;;18.44;99.34
21980;BME280;11154;48.558;9.234;2022-07-05T01:16:30;97799.72;;;18.34;99.40
21980;BME280;11154;48.558;9.234;2022-07-05T01:18:33;97802.63;;;18.32;99.67
21980;BME280;11154;48.558;9.234;2022-07-05T01:20:36;97802.41;;;18.27;100.00
21980;BME280;11154;48.558;9.234;2022-07-05T01:22:53;97802.22;;;18.35;100.00
21980;BME280;11154;48.558;9.234;2022-07-05T01:24:55;97799.34;;;18.43;100.00
21980;BME280;11154;48.558;9.234;2022-07-05T01:26:57;97802.66;;;18.45;99.54
21980;BME280;11154;48.558;9.234;2022-07-05T01:28:59;97805.13;;;18.47;99.87
21980;BME280;11154;48.558;9.234;2022-07-05T01:31:01;97806.81;;;18.48;98.33
21980;BME280;11154;48.558;9.234;2022-07-05T01:33:05;97795.38;;;18.39;98.05
21980;BME280;11154;48.558;9.234;2022-07-05T01:35:07;97801.19;;;18.43;98.34
21980;BME280;11154;48.558;9.234;2022-07-05T01:37:10;97804.31;;;18.46;98.22
21980;BME280;11154;48.558;9.234;2022-07-05T01:39:14;97800.59;;;18.47;98.46
21980;BME280;11154;48.558;9.234;2022-07-05T01:41:16;97798.13;;;18.52;97.94
21980;BME280;11154;48.558;9.234;2022-07-05T01:43:18;97807.44;;;18.56;97.19
21980;BME280;11154;48.558;9.234;2022-07-05T01:45:20;97803.09;;;18.55;97.35
21980;BME280;11154;48.558;9.234;2022-07-05T01:47:37;97808.28;;;18.57;97.49
21980;BME280;11154;48.558;9.234;2022-07-05T01:49:42;97811.63;;;18.59;96.92
21980;BME280;11154;48.558;9.234;2022-07-05T01:51:49;97814.31;;;18.59;96.36
21980;BME280;11154;48.558;9.234;2022-07-05T01:53:53;97812.84;;;18.63;95.51
21980;BME280;11154;48.558;9.234;2022-07-05T01:55:57;97815.75;;;18.61;95.46
21980;BME280;11154;48.558;9.234;2022-07-05T01:58:00;97809.31;;;18.56;96.23
21980;BME280;11154;48.558;9.234;2022-07-05T02:00:03;97808.88;;;18.52;96.45
21980;BME280;11154;48.558;9.234;2022-07-05T02:02:06;97804.75;;;18.56;96.18
21980;BME280;11154;48.558;9.234;2022-07-05T02:04:10;97812.41;;;18.46;96.08
21980;BME280;11154;48.558;9.234;2022-07-05T02:06:12;97818.41;;;18.48;96.33
21980;BME280;11154;48.558;9.234;2022-07-05T02:08:15;97814.28;;;18.46;96.35
21980;BME280;11154;48.558;9.234;2022-07-05T02:10:17;97810.94;;;18.50;96.56
21980;BME280;11154;48.558;9.234;2022-07-05T02:12:20;97811.16;;;18.42;96.89
21980;BME280;11154;48.558;9.234;2022-07-05T02:14:22;97807.00;;;18.46;96.66
21980;BME280;11154;48.558;9.234;2022-07-05T02:16:24;97806.59;;;18.43;96.35
21980;BME280;11154;48.558;9.234;2022-07-05T02:18:26;97814.66;;;18.36;95.51
21980;BME280;11154;48.558;9.234;2022-07-05T02:20:29;97806.75;;;18.28;95.67
21980;BME280;11154;48.558;9.234;2022-07-05T02:22:32;97803.22;;;18.21;96.33
21980;BME280;11154;48.558;9.234;2022-07-05T02:24:33;97804.63;;;18.17;96.53
21980;BME280;11154;48.558;9.234;2022-07-05T02:26:35;97804.38;;;18.12;96.45
21980;BME280;11154;48.558;9.234;2022-07-05T02:28:38;97798.81;;;18.14;96.29
21980;BME280;11154;48.558;9.234;2022-07-05T02:30:40;97799.69;;;18.21;96.51
21980;BME280;11154;48.558;9.234;2022-07-05T02:32:42;97803.00;;;18.23;96.73
21980;BME280;11154;48.558;9.234;2022-07-05T02:34:44;97794.72;;;18.24;96.10
21980;BME280;11154;48.558;9.234;2022-07-05T02:36:45;97800.94;;;18.25;96.08
21980;BME280;11154;48.558;9.234;2022-07-05T02:38:47;97805.09;;;18.27;95.47
21980;BME280;11154;48.558;9.234;2022-07-05T02:40:49;97805.47;;;18.24;95.20
21980;BME280;11154;48.558;9.234;2022-07-05T02:42:50;97810.47;;;18.27;95.89
21980;BME280;11154;48.558;9.234;2022-07-05T02:44:54;97803.56;;;18.18;96.57
21980;BME280;11154;48.558;9.234;2022-07-05T02:46:55;97807.16;;;18.25;96.13
21980;BME280;11154;48.558;9.234;2022-07-05T02:48:57;97802.13;;;18.16;95.70
21980;BME280;11154;48.558;9.234;2022-07-05T02:50:59;97811.84;;;18.17;95.47
21980;BME280;11154;48.558;9.234;2022-07-05T02:53:00;97812.66;;;18.11;95.55
21980;BME280;11154;48.558;9.234;2022-07-05T02:55:03;97808.47;;;18.02;96.02
21980;BME280;11154;48.558;9.234;2022-07-05T02:57:05;97805.38;;;17.99;96.84
21980;BME280;11154;48.558;9.234;2022-07-05T02:59:06;97812.16;;;17.95;97.07
21980;BME280;11154;48.558;9.234;2022-07-05T03:01:09;97814.06;;;18.01;97.97
21980;BME280;11154;48.558;9.234;2022-07-05T03:03:11;97806.63;;;18.03;97.68
21980;BME280;11154;48.558;9.234;2022-07-05T03:05:14;97817.38;;;18.03;97.56
21980;BME280;11154;48.558;9.234;2022-07-05T03:07:16;97812.81;;;18.03;96.45
21980;BME280;11154;48.558;9.234;2022-07-05T03:09:18;97812.66;;;18.05;96.31
21980;BME280;11154;48.558;9.234;2022-07-05T03:11:19;97814.25;;;17.99;96.50
21980;BME280;11154;48.558;9.234;2022-07-05T03:13:21;97813.59;;;17.91;97.31
21980;BME280;11154;48.558;9.234;2022-07-05T03:15:23;97816.47;;;17.83;97.71
21980;BME280;11154;48.558;9.234;2022-07-05T03:17:26;97821.19;;;17.81;98.56
21980;BME280;11154;48.558;9.234;2022-07-05T03:19:28;97815.16;;;17.72;98.54
21980;BME280;11154;48.558;9.234;2022-07-05T03:21:30;97818.06;;;17.71;99.24
21980;BME280;11154;48.558;9.234;2022-07-05T03:23:31;97826.13;;;17.71;100.00
21980;BME280;11154;48.558;9.234;2022-07-05T03:25:33;97830.25;;;17.67;100.00
21980;BME280;11154;48.558;9.234;2022-07-05T03:27:35;97830.44;;;17.65;99.89
21980;BME280;11154;48.558;9.234;2022-07-05T03:29:37;97830.00;;;17.62;100.00
21980;BME280;11154;48.558;9.234;2022-07-05T03:31:38;97823.38;;;17.64;100.00
21980;BME280;11154;48.558;9.234;2022-07-05T03:33:41;97832.50;;;17.63;100.00
21980;BME280;11154;48.558;9.234;2022-07-05T03:35:43;97832.06;;;17.60;100.00
21980;BME280;11154;48.558;9.234;2022-07-05T03:37:45;97829.13;;;17.55;100.00
21980;BME280;11154;48.558;9.234;2022-07-05T03:39:46;97835.72;;;17.52;100.00
21980;BME280;11154;48.558;9.234;2022-07-05T03:41:48;97843.63;;;17.54;100.00
21980;BME280;11154;48.558;9.234;2022-07-05T03:43:50;97844.19;;;17.49;100.00
21980;BME280;11154;48.558;9.234;2022-07-05T03:45:51;97846.03;;;17.49;100.00
21980;BME280;11154;48.558;9.234;2022-07-05T03:47:57;97845.00;;;17.50;100.00
21980;BME280;11154;48.558;9.234;2022-07-05T03:50:00;97847.69;;;17.50;100.00
21980;BME280;11154;48.558;9.234;2022-07-05T03:52:02;97847.13;;;17.54;100.00
21980;BME280;11154;48.558;9.234;2022-07-05T03:54:04;97853.53;;;17.53;100.00
21980;BME280;11154;48.558;9.234;2022-07-05T03:56:05;97856.66;;;17.57;100.00
21980;BME280;11154;48.558;9.234;2022-07-05T03:58:07;97856.28;;;17.60;100.00
21980;BME280;11154;48.558;9.234;2022-07-05T04:00:10;97855.22;;;17.61;100.00
21980;BME280;11154;48.558;9.234;2022-07-05T04:02:11;97866.31;;;17.51;99.18
21980;BME280;11154;48.558;9.234;2022-07-05T04:04:13;97859.91;;;17.52;98.98
21980;BME280;11154;48.558;9.234;2022-07-05T04:06:16;97862.38;;;17.47;99.64
21980;BME280;11154;48.558;9.234;2022-07-05T04:08:18;97860.47;;;17.41;99.30
21980;BME280;11154;48.558;9.234;2022-07-05T04:10:20;97865.31;;;17.52;100.00
21980;BME280;11154;48.558;9.234;2022-07-05T04:12:22;97866.16;;;17.53;99.24
21980;BME280;11154;48.558;9.234;2022-07-05T04:14:24;97870.53;;;17.60;98.66
21980;BME280;11154;48.558;9.234;2022-07-05T04:16:25;97874.94;;;17.68;97.87
21980;BME280;11154;48.558;9.234;2022-07-05T04:18:27;97878.91;;;17.72;97.73
21980;BME280;11154;48.558;9.234;2022-07-05T04:20:29;97874.78;;;17.76;98.01
21980;BME280;11154;48.558;9.234;2022-07-05T04:22:32;97866.31;;;17.79;99.25
21980;BME280;11154;48.558;9.234;2022-07-05T04:24:34;97870.69;;;17.80;99.42
21980;BME280;11154;48.558;9.234;2022-07-05T04:26:56;97871.94;;;17.84;98.58
21980;BME280;11154;48.558;9.234;2022-07-05T04:28:57;97875.28;;;17.86;99.32
21980;BME280;11154;48.558;9.234;2022-07-05T04:30:59;97869.88;;;17.86;99.22
21980;BME280;11154;48.558;9.234;2022-07-05T04:33:01;97870.91;;;17.85;99.37
21980;BME280;11154;48.558;9.234;2022-07-05T04:35:03;97871.94;;;17.84;98.72
21980;BME280;11154;48.558;9.234;2022-07-05T04:37:05;97868.84;;;17.87;98.74
21980;BME280;11154;48.558;9.234;2022-07-05T04:39:08;97884.97;;;17.87;98.81
21980;BME280;11154;48.558;9.234;2022-07-05T04:41:09;97875.28;;;17.86;99.06
21980;BME280;11154;48.558;9.234;2022-07-05T04:43:11;97878.94;;;17.78;99.05
21980;BME280;11154;48.558;9.234;2022-07-05T04:45:13;97875.22;;;17.79;99.17
21980;BME280;11154;48.558;9.234;2022-07-05T04:47:14;97881.63;;;17.78;99.11
21980;BME280;11154;48.558;9.234;2022-07-05T04:49:16;97874.41;;;17.79;99.06
21980;BME280;11154;48.558;9.234;2022-07-05T04:51:18;97888.47;;;17.81;98.82
21980;BME280;11154;48.558;9.234;2022-07-05T04:53:19;97890.34;;;17.80;99.01
21980;BME280;11154;48.558;9.234;2022-07-05T04:55:22;97889.91;;;17.83;99.31
21980;BME280;11154;48.558;9.234;2022-07-05T04:57:24;97884.16;;;17.86;98.95
21980;BME280;11154;48.558;9.234;2022-07-05T04:59:26;97885.63;;;17.89;98.89
21980;BME280;11154;48.558;9.234;2022-07-05T05:01:27;97885.63;;;17.89;98.53
21980;BME280;11154;48.558;9.234;2022-07-05T05:03:29;97885.25;;;17.92;98.39
21980;BME280;11154;48.558;9.234;2022-07-05T05:05:31;97884.00;;;17.94;98.35
21980;BME280;11154;48.558;9.234;2022-07-05T05:07:33;97893.53;;;17.97;98.01
21980;BME280;11154;48.558;9.234;2022-07-05T05:09:35;97884.03;;;18.01;97.86
21980;BME280;11154;48.558;9.234;2022-07-05T05:11:38;97881.97;;;18.03;98.68
21980;BME280;11154;48.558;9.234;2022-07-05T05:13:39;97888.38;;;18.02;99.36
21980;BME280;11154;48.558;9.234;2022-07-05T05:15:45;97889.03;;;18.04;99.18
21980;BME280;11154;48.558;9.234;2022-07-05T05:17:47;97886.34;;;18.04;99.68
21980;BME280;11154;48.558;9.234;2022-07-05T05:19:48;97885.69;;;18.02;100.00
21980;BME280;11154;48.558;9.234;2022-07-05T05:21:50;97892.75;;;18.03;100.00
21980;BME280;11154;48.558;9.234;2022-07-05T05:23:52;97886.72;;;18.01;100.00
21980;BME280;11154;48.558;9.234;2022-07-05T05:25:53;97886.13;;;18.05;99.56
21980;BME280;11154;48.558;9.234;2022-07-05T05:27:56;97895.25;;;18.04;97.99
21980;BME280;11154;48.558;9.234;2022-07-05T05:29:59;97901.47;;;18.05;96.73
21980;BME280;11154;48.558;9.234;2022-07-05T05:32:00;97902.94;;;18.07;96.87
21980;BME280;11154;48.558;9.234;2022-07-05T05:34:02;97902.50;;;18.10;97.45
21980;BME280;11154;48.558;9.234;2022-07-05T05:36:04;97893.63;;;18.16;97.65
21980;BME280;11154;48.558;9.234;2022-07-05T05:38:06;97895.31;;;18.17;97.33
21980;BME280;11154;48.558;9.234;2022-07-05T05:40:09;97901.59;;;18.24;96.96
21980;BME280;11154;48.558;9.234;2022-07-05T05:42:11;97902.03;;;18.27;97.01
21980;BME280;11154;48.558;9.234;2022-07-05T05:44:14;97910.31;;;18.32;96.71
21980;BME280;11154;48.558;9.234;2022-07-05T05:46:15;97911.78;;;18.35;95.99
21980;BME280;11154;48.558;9.234;2022-07-05T05:48:17;97914.53;;;18.41;95.79
21980;BME280;11154;48.558;9.234;2022-07-05T05:50:21;97916.63;;;18.46;95.19
21980;BME280;11154;48.558;9.234;2022-07-05T05:52:23;97915.81;;;18.52;94.50
21980;BME280;11154;48.558;9.234;2022-07-05T05:54:26;97916.69;;;18.59;94.91
21980;BME280;11154;48.558;9.234;2022-07-05T05:56:28;97914.19;;;18.64;95.23
21980;BME280;11154;48.558;9.234;2022-07-05T05:58:29;97921.69;;;18.68;94.27
21980;BME280;11154;48.558;9.234;2022-07-05T06:00:32;97917.94;;;18.69;93.01
21980;BME280;11154;48.558;9.234;2022-07-05T06:02:34;97920.66;;;18.76;92.92
21980;BME280;11154;48.558;9.234;2022-07-05T06:04:36;97922.94;;;18.79;92.14
21980;BME280;11154;48.558;9.234;2022-07-05T06:06:37;97916.56;;;18.86;92.41
21980;BME280;11154;48.558;9.234;2022-07-05T06:08:39;97931.69;;;18.87;91.42
21980;BME280;11154;48.558;9.234;2022-07-05T06:10:41;97928.41;;;18.98;93.16
21980;BME280;11154;48.558;9.234;2022-07-05T06:12:43;97927.97;;;19.01;93.67
21980;BME280;11154;48.558;9.234;2022-07-05T06:14:45;97932.41;;;19.08;93.71
21980;BME280;11154;48.558;9.234;2022-07-05T06:16:47;97934.28;;;19.14;92.22
21980;BME280;11154;48.558;9.234;2022-07-05T06:18:49;97935.13;;;19.21;91.66
21980;BME280;11154;48.558;9.234;2022-07-05T06:20:51;97939.47;;;19.29;90.86
21980;BME280;11154;48.558;9.234;2022-07-05T06:22:53;97940.53;;;19.34;89.40
21980;BME280;11154;48.558;9.234;2022-07-05T06:24:55;97934.31;;;19.40;88.39
21980;BME280;11154;48.558;9.234;2022-07-05T06:26:57;97939.28;;;19.56;89.75
21980;BME280;11154;48.558;9.234;2022-07-05T06:28:58;97934.75;;;19.57;87.06
21980;BME280;11154;48.558;9.234;2022-07-05T06:31:00;97939.91;;;19.64;86.40
21980;BME280;11154;48.558;9.234;2022-07-05T06:33:03;97933.72;;;19.70;86.01
21980;BME280;11154;48.558;9.234;2022-07-05T06:35:06;97938.06;;;19.78;86.04
21980;BME280;11154;48.558;9.234;2022-07-05T06:37:08;97932.06;;;19.95;87.31
21980;BME280;11154;48.558;9.234;2022-07-05T06:39:10;97936.16;;;19.91;85.43
21980;BME280;11154;48.558;9.234;2022-07-05T06:41:11;97942.66;;;19.97;86.17
21980;BME280;11154;48.558;9.234;2022-07-05T06:43:14;97945.31;;;20.03;85.84
21980;BME280;11154;48.558;9.234;2022-07-05T06:45:15;97943.44;;;20.17;85.45
21980;BME280;11154;48.558;9.234;2022-07-05T06:47:17;97935.13;;;20.18;84.34
21980;BME280;11154;48.558;9.234;2022-07-05T06:49:20;97945.72;;;20.20;84.30
21980;BME280;11154;48.558;9.234;2022-07-05T06:51:22;97944.00;;;20.38;84.12
21980;BME280;11154;48.558;9.234;2022-07-05T06:53:23;97948.97;;;20.41;82.63
21980;BME280;11154;48.558;9.234;2022-07-05T06:55:26;97945.88;;;20.37;80.33
21980;BME280;11154;48.558;9.234;2022-07-05T06:57:28;97944.38;;;20.48;80.90
21980;BME280;11154;48.558;9.234;2022-07-05T06:59:30;97946.59;;;20.77;80.91
21980;BME280;11154;48.558;9.234;2022-07-05T07:01:31;97947.66;;;20.76;81.33
21980;BME280;11154;48.558;9.234;2022-07-05T07:03:33;97949.28;;;20.70;81.39
21980;BME280;11154;48.558;9.234;2022-07-05T07:05:36;97955.53;;;20.77;78.80
21980;BME280;11154;48.558;9.234;2022-07-05T07:07:37;97952.84;;;20.64;77.58
21980;BME280;11154;48.558;9.234;2022-07-05T07:09:57;97948.56;;;21.01;76.79
21980;BME280;11154;48.558;9.234;2022-07-05T07:11:58;97956.06;;;20.99;75.87
21980;BME280;11154;48.558;9.234;2022-07-05T07:14:00;97953.50;;;21.16;79.11
21980;BME280;11154;48.558;9.234;2022-07-05T07:16:02;97948.75;;;21.05;74.27
21980;BME280;11154;48.558;9.234;2022-07-05T07:18:04;97957.88;;;21.11;69.23
21980;BME280;11154;48.558;9.234;2022-07-05T07:20:06;97951.69;;;21.35;72.16
21980;BME280;11154;48.558;9.234;2022-07-05T07:22:09;97960.19;;;21.38;72.33
21980;BME280;11154;48.558;9.234;2022-07-05T07:24:11;97948.97;;;21.35;69.81
21980;BME280;11154;48.558;9.234;2022-07-05T07:26:13;97951.28;;;21.31;67.09
21980;BME280;11154;48.558;9.234;2022-07-05T07:28:15;97951.22;;;21.44;71.76
21980;BME280;11154;48.558;9.234;2022-07-05T07:30:18;97949.53;;;21.43;70.34
21980;BME280;11154;48.558;9.234;2022-07-05T07:32:20;97955.75;;;21.57;69.47
21980;BME280;11154;48.558;9.234;2022-07-05T07:34:22;97941.50;;;21.68;69.60
21980;BME280;11154;48.558;9.234;2022-07-05T07:36:24;97949.38;;;21.69;68.00
21980;BME280;11154;48.558;9.234;2022-07-05T07:38:27;97952.72;;;21.71;67.47
21980;BME280;11154;48.558;9.234;2022-07-05T07:40:29;97946.84;;;21.74;65.54
21980;BME280;11154;48.558;9.234;2022-07-05T07:42:31;97951.16;;;21.57;64.21
21980;BME280;11154;48.558;9.234;2022-07-05T07:44:32;97952.38;;;21.61;66.36
21980;BME280;11154;48.558;9.234;2022-07-05T07:46:34;97957.63;;;21.80;70.48
21980;BME280;11154;48.558;9.234;2022-07-05T07:48:36;97961.28;;;21.92;70.89
21980;BME280;11154;48.558;9.234;2022-07-05T07:50:38;97955.94;;;21.86;62.62
21980;BME280;11154;48.558;9.234;2022-07-05T07:52:39;97960.47;;;21.92;69.08
21980;BME280;11154;48.558;9.234;2022-07-05T07:54:42;97969.06;;;22.07;69.13
21980;BME280;11154;48.558;9.234;2022-07-05T07:56:44;97966.41;;;22.25;67.13
21980;BME280;11154;48.558;9.234;2022-07-05T07:58:46;97959.13;;;22.01;62.00
21980;BME280;11154;48.558;9.234;2022-07-05T08:00:48;97955.38;;;22.20;69.14
21980;BME280;11154;48.558;9.234;2022-07-05T08:02:50;97967.19;;;22.32;65.62
21980;BME280;11154;48.558;9.234;2022-07-05T08:04:52;97960.41;;;22.41;62.25
21980;BME280;11154;48.558;9.234;2022-07-05T08:06:53;97960.50;;;22.52;68.85
21980;BME280;11154;48.558;9.234;2022-07-05T08:08:55;97964.38;;;22.62;65.95
21980;BME280;11154;48.558;9.234;2022-07-05T08:10:58;97957.19;;;22.68;63.16
21980;BME280;11154;48.558;9.234;2022-07-05T08:13:00;97967.75;;;22.76;63.54
21980;BME280;11154;48.558;9.234;2022-07-05T08:15:03;97968.94;;;22.80;62.58
21980;BME280;11154;48.558;9.234;2022-07-05T08:17:08;97962.66;;;22.97;65.47
21980;BME280;11154;48.558;9.234;2022-07-05T08:19:10;97959.19;;;23.08;65.90
21980;BME280;11154;48.558;9.234;2022-07-05T08:21:29;97967.81;;;23.05;63.11
21980;BME280;11154;48.558;9.234;2022-07-05T08:23:32;97961.78;;;22.85;58.95
21980;BME280;11154;48.558;9.234;2022-07-05T08:25:34;97962.00;;;22.84;60.97
21980;BME280;11154;48.558;9.234;2022-07-05T08:27:37;97956.66;;;23.13;62.48
21980;BME280;11154;48.558;9.234;2022-07-05T08:29:39;97956.28;;;23.10;60.05
21980;BME280;11154;48.558;9.234;2022-07-05T08:31:42;97952.69;;;23.27;60.64
21980;BME280;11154;48.558;9.234;2022-07-05T08:33:44;97955.38;;;23.45;58.27
21980;BME280;11154;48.558;9.234;2022-07-05T08:35:46;97953.56;;;23.39;59.65
21980;BME280;11154;48.558;9.234;2022-07-05T08:37:48;97961.13;;;23.37;59.92
21980;BME280;11154;48.558;9.234;2022-07-05T08:39:49;97952.28;;;23.53;60.78
21980;BME280;11154;48.558;9.234;2022-07-05T08:41:52;97952.41;;;23.46;59.81
21980;BME280;11154;48.558;9.234;2022-07-05T08:43:57;97954.88;;;23.48;60.76
21980;BME280;11154;48.558;9.234;2022-07-05T08:45:59;97945.47;;;23.62;61.29
21980;BME280;11154;48.558;9.234;2022-07-05T08:48:03;97949.50;;;23.59;57.49
21980;BME280;11154;48.558;9.234;2022-07-05T08:50:07;97948.28;;;23.55;59.93
21980;BME280;11154;48.558;9.234;2022-07-05T08:52:11;97940.66;;;23.64;60.04
21980;BME280;11154;48.558;9.234;2022-07-05T08:54:13;97955.47;;;23.79;60.40
21980;BME280;11154;48.558;9.234;2022-07-05T08:56:17;97955.03;;;23.94;58.85
21980;BME280;11154;48.558;9.234;2022-07-05T08:58:18;97954.66;;;23.90;57.70
21980;BME280;11154;48.558;9.234;2022-07-05T09:00:22;97954.69;;;24.02;61.08
21980;BME280;11154;48.558;9.234;2022-07-05T09:02:23;97960.84;;;24.08;55.50
21980;BME280;11154;48.558;9.234;2022-07-05T09:04:30;97958.84;;;24.15;60.36
21980;BME280;11154;48.558;9.234;2022-07-05T09:06:35;97953.84;;;24.12;57.08
21980;BME280;11154;48.558;9.234;2022-07-05T09:08:38;97953.88;;;24.24;58.48
21980;BME280;11154;48.558;9.234;2022-07-05T09:10:42;97951.75;;;24.14;56.69
21980;BME280;11154;48.558;9.234;2022-07-05T09:12:44;97959.16;;;24.19;61.04
21980;BME280;11154;48.558;9.234;2022-07-05T09:14:46;97962.72;;;24.19;57.63
21980;BME280;11154;48.558;9.234;2022-07-05T09:16:49;97954.59;;;24.42;61.82
21980;BME280;11154;48.558;9.234;2022-07-05T09:18:52;97960.72;;;24.49;58.78
21980;BME280;11154;48.558;9.234;2022-07-05T09:21:11;97954.72;;;24.47;57.81
21980;BME280;11154;48.558;9.234;2022-07-05T09:23:19;97956.00;;;24.33;52.97
21980;BME280;11154;48.558;9.234;2022-07-05T09:25:23;97956.94;;;24.27;54.50
21980;BME280;11154;48.558;9.234;2022-07-05T09:27:27;97954.44;;;24.37;54.99
21980;BME280;11154;48.558;9.234;2022-07-05T09:29:28;97961.06;;;24.64;65.92
21980;BME280;11154;48.558;9.234;2022-07-05T09:31:32;97953.00;;;24.69;61.22
21980;BME280;11154;48.558;9.234;2022-07-05T09:33:48;97955.03;;;24.74;55.30
21980;BME280;11154;48.558;9.234;2022-07-05T09:35:51;97954.78;;;24.75;54.36
21980;BME280;11154;48.558;9.234;2022-07-05T09:37:54;97955.56;;;24.87;58.93
21980;BME280;11154;48.558;9.234;2022-07-05T09:39:56;97954.31;;;24.78;53.60
21980;BME280;11154;48.558;9.234;2022-07-05T09:42:09;97961.72;;;24.82;53.76
21980;BME280;11154;48.558;9.234;2022-07-05T09:44:10;97966.25;;;24.88;52.44
21980;BME280;11154;48.558;9.234;2022-07-05T09:46:12;97964.00;;;24.74;51.15
21980;BME280;11154;48.558;9.234;2022-07-05T09:48:14;97962.06;;;24.86;53.76
21980;BME280;11154;48.558;9.234;2022-07-05T09:50:32;97965.47;;;25.04;56.41
21980;BME280;11154;48.558;9.234;2022-07-05T09:52:35;97962.66;;;24.99;52.64
21980;BME280;11154;48.558;9.234;2022-07-05T09:54:37;97964.66;;;25.04;53.66
21980;BME280;11154;48.558;9.234;2022-07-05T09:56:44;97959.09;;;25.10;53.55
21980;BME280;11154;48.558;9.234;2022-07-05T09:58:46;97962.16;;;25.02;48.93
21980;BME280;11154;48.558;9.234;2022-07-05T10:00:48;97963.72;;;25.10;47.25
21980;BME280;11154;48.558;9.234;2022-07-05T10:02:51;97959.84;;;25.34;53.61
21980;BME280;11154;48.558;9.234;2022-07-05T10:05:07;97962.88;;;25.49;48.46
21980;BME280;11154;48.558;9.234;2022-07-05T10:07:30;97957.09;;;25.61;46.29
21980;BME280;11154;48.558;9.234;2022-07-05T10:09:33;97963.44;;;25.67;46.16
21980;BME280;11154;48.558;9.234;2022-07-05T10:11:39;97960.22;;;25.53;42.28
21980;BME280;11154;48.558;9.234;2022-07-05T10:13:41;97957.22;;;25.39;40.70
21980;BME280;11154;48.558;9.234;2022-07-05T10:15:43;97955.53;;;25.38;41.91
21980;BME280;11154;48.558;9.234;2022-07-05T10:17:48;97954.88;;;25.31;41.17
21980;BME280;11154;48.558;9.234;2022-07-05T10:19:52;97952.56;;;25.23;41.82
21980;BME280;11154;48.558;9.234;2022-07-05T10:21:54;97954.50;;;25.11;40.45
21980;BME280;11154;48.558;9.234;2022-07-05T10:23:58;97949.72;;;25.18;42.29
21980;BME280;11154;48.558;9.234;2022-07-05T10:26:01;97954.66;;;25.32;43.62
21980;BME280;11154;48.558;9.234;2022-07-05T10:28:04;97952.38;;;25.29;42.59
21980;BME280;11154;48.558;9.234;2022-07-05T10:30:07;97944.25;;;25.18;39.60
21980;BME280;11154;48.558;9.234;2022-07-05T10:32:09;97947.94;;;25.12;39.81
21980;BME280;11154;48.558;9.234;2022-07-05T10:34:12;97946.22;;;25.34;42.61
21980;BME280;11154;48.558;9.234;2022-07-05T10:36:15;97942.19;;;25.36;40.89
21980;BME280;11154;48.558;9.234;2022-07-05T10:38:17;97951.50;;;25.68;48.41
21980;BME280;11154;48.558;9.234;2022-07-05T10:40:20;97946.38;;;25.71;42.31
21980;BME280;11154;48.558;9.234;2022-07-05T10:42:23;97944.28;;;25.62;41.34
21980;BME280;11154;48.558;9.234;2022-07-05T10:44:26;97956.31;;;25.49;42.00
21980;BME280;11154;48.558;9.234;2022-07-05T10:46:35;97955.25;;;25.50;42.86
21980;BME280;11154;48.558;9.234;2022-07-05T10:48:37;97951.28;;;25.42;41.99
21980;BME280;11154;48.558;9.234;2022-07-05T10:50:42;97950.25;;;25.31;42.48